Time;durP1;ratioP1;P1;durP2;ratioP2;P2;SDS_P1;SDS_P2;PMS_P1;PMS_P2;Temp;Humidity;BMP_temperature;BMP_pressure;BME280_temperature;BME280_humidity;BME280_pressure;Samples;Min_cycle;Max_cycle;Signal;HPM_P1;HPM_P2
2022/06/12 00:00:32;;;;;;;11.18;3.70;;;18.60;64.30;;;;;;5052951;28;20032;-70
2022/06/12 00:02:58;;;;;;;11.35;3.33;;;18.50;64.40;;;;;;5053001;28;20065;-69
2022/06/12 00:05:25;;;;;;;12.57;3.65;;;18.60;64.50;;;;;;5052897;28;20541;-69
2022/06/12 00:07:51;;;;;;;13.40;3.72;;;18.50;64.50;;;;;;5052701;28;20112;-69
2022/06/12 00:10:16;;;;;;;12.85;3.42;;;18.50;64.60;;;;;;5052866;28;20128;-70
2022/06/12 00:12:43;;;;;;;15.48;3.75;;;18.50;64.60;;;;;;5053803;28;20025;-70
2022/06/12 00:15:09;;;;;;;13.63;3.72;;;18.50;64.60;;;;;;5052691;28;20028;-70
2022/06/12 00:17:35;;;;;;;16.13;3.75;;;18.50;64.60;;;;;;5053710;28;20048;-70
2022/06/12 00:20:00;;;;;;;11.27;3.55;;;18.50;64.70;;;;;;5052972;28;20057;-69
2022/06/12 00:22:26;;;;;;;11.98;3.15;;;18.40;64.80;;;;;;5052446;28;20021;-69
2022/06/12 00:24:51;;;;;;;7.13;3.05;;;18.50;64.80;;;;;;5052495;28;20052;-69
2022/06/12 00:27:17;;;;;;;8.23;2.55;;;18.60;65.50;;;;;;5053596;28;20059;-69
2022/06/12 00:29:44;;;;;;;19.65;3.38;;;18.80;66.90;;;;;;5041948;28;20209;-69
2022/06/12 00:32:14;;;;;;;14.13;3.00;;;18.90;67.10;;;;;;5033738;28;20028;-69
2022/06/12 00:34:46;;;;;;;16.33;3.47;;;19.00;67.20;;;;;;5032471;28;20029;-69
2022/06/12 00:37:12;;;;;;;11.43;2.72;;;19.10;67.10;;;;;;5046503;28;20498;-69
2022/06/12 00:39:38;;;;;;;15.30;2.80;;;19.10;67.00;;;;;;5053275;28;20039;-69
2022/06/12 00:42:05;;;;;;;14.82;2.80;;;19.20;67.00;;;;;;5053588;28;20490;-69
2022/06/12 00:44:34;;;;;;;9.65;2.60;;;19.20;67.10;;;;;;5053082;28;20037;-69
2022/06/12 00:47:05;;;;;;;5.45;2.20;;;19.30;67.10;;;;;;5051981;28;20025;-69
2022/06/12 00:49:39;;;;;;;7.63;2.20;;;19.30;67.00;;;;;;5052006;28;20025;-69
2022/06/12 00:52:29;;;;;;;10.45;2.45;;;19.40;67.10;;;;;;5036401;28;20017;-69
2022/06/12 00:55:12;;;;;;;7.10;2.40;;;19.40;66.80;;;;;;5052766;28;20021;-69
2022/06/12 00:57:38;;;;;;;9.27;2.25;;;19.40;66.70;;;;;;5037280;28;20013;-69
2022/06/12 01:00:07;;;;;;;8.43;1.85;;;19.40;66.70;;;;;;5035493;28;20426;-68
2022/06/12 01:02:33;;;;;;;8.73;2.20;;;19.40;66.50;;;;;;5029295;28;20483;-68
2022/06/12 01:07:46;;;;;;;14.07;3.08;;;19.40;66.60;;;;;;5023406;28;20395;-68
2022/06/12 01:10:13;;;;;;;9.55;2.50;;;19.50;67.70;;;;;;5015307;28;20021;-68
2022/06/12 01:12:48;;;;;;;13.25;2.55;;;19.50;66.70;;;;;;5031505;28;20025;-68
2022/06/12 01:15:22;;;;;;;7.78;1.95;;;19.50;66.70;;;;;;5016433;28;20029;-69
2022/06/12 01:17:48;;;;;;;8.30;2.83;;;19.50;66.60;;;;;;5032714;28;20104;-68
2022/06/12 01:20:17;;;;;;;6.65;2.30;;;19.50;66.60;;;;;;5031237;28;20438;-68
2022/06/12 01:23:37;;;;;;;9.82;2.72;;;19.50;66.60;;;;;;5049754;28;20031;-68
2022/06/12 01:26:13;;;;;;;7.55;2.10;;;19.50;66.50;;;;;;5048798;28;20039;-69
2022/06/12 01:28:53;;;;;;;7.90;2.20;;;19.50;66.60;;;;;;5047219;28;20566;-69
2022/06/12 01:31:37;;;;;;;7.78;1.90;;;19.50;66.50;;;;;;5029543;28;20083;-69
2022/06/12 01:34:09;;;;;;;9.38;2.40;;;19.50;66.50;;;;;;5029543;28;20061;-69
2022/06/12 01:37:02;;;;;;;8.30;2.45;;;19.60;66.50;;;;;;5029938;28;20029;-69
2022/06/12 01:39:42;;;;;;;6.90;2.42;;;19.50;66.50;;;;;;5013747;28;20029;-69
2022/06/12 01:42:19;;;;;;;5.60;2.00;;;19.60;66.60;;;;;;5013845;28;20034;-69
2022/06/12 01:45:11;;;;;;;9.00;2.53;;;19.60;66.50;;;;;;5013541;28;20049;-69
2022/06/12 01:48:02;;;;;;;9.73;2.03;;;19.60;66.60;;;;;;5030204;28;20507;-69
2022/06/12 01:50:40;;;;;;;8.00;2.15;;;19.60;66.50;;;;;;5012251;28;20034;-69
2022/06/12 01:53:20;;;;;;;6.72;2.42;;;19.60;66.50;;;;;;5013560;28;20519;-69
2022/06/12 01:56:12;;;;;;;5.15;2.35;;;19.60;66.50;;;;;;5030131;28;20124;-69
2022/06/12 01:59:01;;;;;;;6.13;2.47;;;19.60;66.40;;;;;;5009214;28;20045;-69
2022/06/12 02:01:59;;;;;;;5.60;2.28;;;19.60;66.50;;;;;;5031422;28;20491;-69
2022/06/12 02:04:32;;;;;;;4.80;2.08;;;19.60;66.40;;;;;;5030803;28;20092;-69
2022/06/12 02:07:01;;;;;;;3.90;1.77;;;19.60;66.40;;;;;;5030614;28;20049;-69
2022/06/12 02:09:30;;;;;;;4.80;1.80;;;19.70;66.50;;;;;;5031079;28;20075;-69
2022/06/12 02:15:17;;;;;;;8.05;2.00;;;19.70;66.50;;;;;;5030482;28;20389;-69
2022/06/12 02:18:02;;;;;;;5.47;2.20;;;19.70;66.40;;;;;;5031030;28;20037;-69
2022/06/12 02:20:31;;;;;;;5.47;2.00;;;19.70;66.50;;;;;;5015278;28;20503;-69
2022/06/12 02:22:57;;;;;;;6.18;2.17;;;19.70;66.50;;;;;;5016800;28;20028;-69
2022/06/12 02:25:31;;;;;;;5.38;2.35;;;19.70;66.50;;;;;;5018250;28;20033;-69
2022/06/12 02:28:01;;;;;;;5.63;1.80;;;19.70;66.50;;;;;;5019326;28;20013;-69
2022/06/12 02:30:30;;;;;;;6.15;2.28;;;19.70;66.50;;;;;;5018527;28;20103;-69
2022/06/12 02:33:30;;;;;;;4.32;2.13;;;19.70;66.40;;;;;;5034561;28;20088;-69
2022/06/12 02:36:06;;;;;;;7.10;2.58;;;19.70;66.40;;;;;;5038456;28;20021;-69
2022/06/12 02:38:42;;;;;;;5.30;2.00;;;19.70;66.40;;;;;;5054427;28;20028;-69
2022/06/12 02:41:32;;;;;;;4.50;1.90;;;19.70;66.50;;;;;;5054431;28;20614;-69
2022/06/12 02:44:00;;;;;;;7.43;1.80;;;19.70;66.40;;;;;;5054094;28;20031;-69
2022/06/12 02:47:05;;;;;;;3.85;1.70;;;19.70;66.40;;;;;;5038051;28;20025;-69
2022/06/12 02:49:31;;;;;;;4.10;1.80;;;19.70;66.40;;;;;;5053300;28;20021;-69
2022/06/12 02:52:15;;;;;;;6.78;2.47;;;19.80;66.40;;;;;;5036514;28;20040;-69
2022/06/12 02:55:03;;;;;;;3.95;2.10;;;19.80;66.60;;;;;;5053383;28;20459;-69
2022/06/12 02:57:47;;;;;;;4.55;2.00;;;19.80;66.50;;;;;;5036665;28;20087;-69
2022/06/12 03:00:28;;;;;;;5.25;2.50;;;19.80;66.60;;;;;;5053197;28;20025;-69
2022/06/12 03:03:17;;;;;;;2.67;1.70;;;19.80;66.70;;;;;;5052903;28;20492;-69
2022/06/12 03:05:43;;;;;;;5.75;2.10;;;19.80;66.70;;;;;;5036069;28;20032;-69
2022/06/12 03:08:15;;;;;;;5.03;2.25;;;19.80;66.70;;;;;;5036817;28;20036;-69
2022/06/12 03:10:57;;;;;;;4.65;1.70;;;19.80;67.70;;;;;;5036646;28;20033;-69
2022/06/12 03:13:25;;;;;;;5.80;1.55;;;19.80;66.70;;;;;;5036962;28;20033;-69
2022/06/12 03:16:16;;;;;;;2.88;1.55;;;19.80;66.70;;;;;;5036247;28;20151;-69
2022/06/12 03:18:46;;;;;;;6.10;2.05;;;19.90;66.90;;;;;;5036336;28;20029;-69
2022/06/12 03:21:33;;;;;;;3.47;1.98;;;19.90;66.90;;;;;;5036403;28;20048;-69
2022/06/12 03:24:27;;;;;;;6.22;1.88;;;19.90;66.90;;;;;;5054338;28;20056;-68
2022/06/12 03:27:25;;;;;;;3.97;2.00;;;19.80;66.90;;;;;;5053383;28;20021;-68
2022/06/12 03:30:16;;;;;;;5.05;2.00;;;19.80;66.90;;;;;;5042746;28;20045;-68
2022/06/12 03:32:44;;;;;;;2.70;1.63;;;19.90;67.00;;;;;;5033829;28;20388;-68
2022/06/12 03:35:34;;;;;;;3.22;1.80;;;19.90;67.00;;;;;;5033840;28;20029;-68
2022/06/12 03:38:28;;;;;;;2.97;1.80;;;19.90;67.00;;;;;;5034556;28;20022;-68
2022/06/12 03:41:08;;;;;;;3.63;1.90;;;19.90;67.00;;;;;;5034463;28;20037;-68
2022/06/12 03:43:44;;;;;;;5.70;1.75;;;19.90;67.00;;;;;;5034501;28;20101;-68
2022/06/12 03:46:30;;;;;;;7.15;2.22;;;19.90;67.10;;;;;;5033322;28;20037;-69
2022/06/12 03:49:21;;;;;;;6.90;2.38;;;19.90;67.10;;;;;;5033000;28;20045;-69
2022/06/12 03:52:13;;;;;;;6.43;1.92;;;19.90;67.10;;;;;;5034439;28;20100;-69
2022/06/12 03:54:47;;;;;;;7.38;2.10;;;20.00;68.20;;;;;;5033673;28;20075;-69
2022/06/12 04:00:08;;;;;;;3.00;1.88;;;19.90;67.00;;;;;;5020052;28;20049;-69
2022/06/12 04:02:34;;;;;;;2.78;1.60;;;20.00;67.10;;;;;;5033170;28;20014;-69
2022/06/12 04:05:00;;;;;;;5.18;2.10;;;19.90;67.10;;;;;;5016295;28;20036;-69
2022/06/12 04:07:26;;;;;;;3.83;1.63;;;20.00;67.20;;;;;;5016676;28;20496;-68
2022/06/12 04:09:53;;;;;;;13.05;2.40;;;20.00;67.10;;;;;;5016492;28;20412;-68
2022/06/12 04:12:25;;;;;;;5.97;2.03;;;20.00;67.10;;;;;;5016282;28;20483;-68
2022/06/12 04:15:04;;;;;;;3.63;1.88;;;20.00;67.10;;;;;;5032774;28;20025;-69
2022/06/12 04:17:30;;;;;;;10.50;2.00;;;20.00;67.10;;;;;;5016537;28;20391;-69
2022/06/12 04:20:04;;;;;;;3.65;1.48;;;20.00;67.10;;;;;;5032780;28;20096;-69
2022/06/12 04:22:46;;;;;;;3.80;1.60;;;20.00;67.10;;;;;;5017507;28;20032;-69
2022/06/12 04:25:41;;;;;;;5.60;1.93;;;20.00;67.10;;;;;;5017513;28;20037;-69
2022/06/12 04:28:32;;;;;;;4.43;1.60;;;20.00;67.10;;;;;;5018455;28;20045;-69
2022/06/12 04:30:58;;;;;;;4.65;2.20;;;20.10;67.20;;;;;;5032457;28;20026;-69
2022/06/12 04:33:36;;;;;;;7.70;1.80;;;20.00;67.10;;;;;;5016083;28;20049;-69
2022/06/12 04:36:03;;;;;;;3.13;1.63;;;20.00;67.10;;;;;;5037049;28;20478;-69
2022/06/12 04:38:29;;;;;;;6.47;1.92;;;20.00;67.00;;;;;;5035934;28;20033;-69
2022/06/12 04:40:55;;;;;;;3.80;1.65;;;20.00;67.00;;;;;;5052101;28;20505;-69
2022/06/12 04:43:21;;;;;;;7.85;2.47;;;20.00;67.00;;;;;;5035612;28;20035;-69
2022/06/12 04:45:47;;;;;;;7.50;2.20;;;20.10;67.00;;;;;;5051101;28;20044;-69
2022/06/12 04:48:15;;;;;;;2.80;1.70;;;20.10;67.00;;;;;;5051878;28;20025;-69
2022/06/12 04:50:41;;;;;;;3.80;1.95;;;20.10;66.90;;;;;;5035815;28;20382;-69
2022/06/12 04:53:07;;;;;;;3.83;1.60;;;20.10;66.90;;;;;;5053206;28;20025;-69
2022/06/12 04:55:33;;;;;;;5.35;1.60;;;20.10;67.00;;;;;;5051946;28;20495;-69
2022/06/12 04:57:59;;;;;;;6.57;1.80;;;20.10;66.90;;;;;;5051912;28;20108;-69
2022/06/12 05:00:25;;;;;;;3.13;1.70;;;20.10;66.90;;;;;;5035511;28;20056;-69
2022/06/12 05:02:51;;;;;;;3.75;1.50;;;20.10;66.90;;;;;;5052957;28;20054;-69
2022/06/12 05:05:16;;;;;;;4.30;2.03;;;20.10;66.80;;;;;;5051654;28;20021;-69
2022/06/12 05:07:42;;;;;;;5.32;1.73;;;20.10;66.80;;;;;;5052869;28;20031;-69
2022/06/12 05:10:09;;;;;;;6.68;1.92;;;20.10;66.90;;;;;;5052827;28;20031;-69
2022/06/12 05:12:34;;;;;;;2.95;1.50;;;20.10;66.90;;;;;;5035458;28;20024;-69
2022/06/12 05:15:00;;;;;;;5.18;1.63;;;20.10;66.90;;;;;;5052705;28;20017;-69
2022/06/12 05:17:27;;;;;;;6.00;1.98;;;20.10;66.90;;;;;;5052507;28;20025;-69
2022/06/12 05:19:52;;;;;;;4.35;1.60;;;20.10;66.80;;;;;;5051764;28;20070;-69
2022/06/12 05:22:21;;;;;;;4.20;1.55;;;20.10;66.90;;;;;;5034866;28;20025;-69
2022/06/12 05:24:47;;;;;;;5.05;1.92;;;20.10;66.90;;;;;;5051658;28;20017;-69
2022/06/12 05:27:18;;;;;;;2.95;1.42;;;20.10;66.80;;;;;;5034723;28;20051;-69
2022/06/12 05:29:44;;;;;;;6.45;1.63;;;20.10;66.80;;;;;;5024847;28;20728;-69
2022/06/12 05:32:14;;;;;;;5.03;1.80;;;20.10;66.90;;;;;;5032347;28;20092;-69
2022/06/12 05:34:40;;;;;;;3.95;1.70;;;20.10;66.90;;;;;;5015563;28;20407;-69
2022/06/12 05:37:06;;;;;;;4.55;1.75;;;20.20;67.00;;;;;;5045756;28;20028;-69
2022/06/12 05:39:32;;;;;;;4.88;1.90;;;20.10;66.90;;;;;;5051411;28;20060;-69
2022/06/12 05:41:57;;;;;;;4.28;1.50;;;20.10;67.00;;;;;;5051233;28;20037;-69
2022/06/12 05:44:23;;;;;;;7.50;1.65;;;20.10;66.90;;;;;;5050754;28;20526;-69
2022/06/12 05:46:48;;;;;;;4.55;1.58;;;20.20;67.00;;;;;;5052366;28;20095;-69
2022/06/12 05:49:14;;;;;;;5.80;1.80;;;20.10;66.90;;;;;;5052449;28;20557;-69
2022/06/12 05:51:40;;;;;;;4.78;1.80;;;20.20;67.00;;;;;;5051059;28;20449;-69
2022/06/12 05:54:05;;;;;;;4.45;1.77;;;20.20;67.00;;;;;;5052268;28;20395;-69
2022/06/12 05:56:31;;;;;;;2.58;1.58;;;20.20;66.90;;;;;;5051930;28;20114;-69
2022/06/12 05:58:59;;;;;;;7.18;1.88;;;20.20;66.90;;;;;;5051975;28;20099;-69
2022/06/12 06:01:25;;;;;;;5.65;1.77;;;20.20;67.00;;;;;;5051072;28;20044;-69
2022/06/12 06:03:50;;;;;;;2.80;1.60;;;20.20;66.90;;;;;;5034677;28;20056;-69
2022/06/12 06:06:20;;;;;;;3.58;1.92;;;20.20;66.90;;;;;;5051995;28;20037;-70
2022/06/12 06:08:46;;;;;;;4.80;1.58;;;20.10;66.90;;;;;;5034774;28;20083;-70
2022/06/12 06:11:11;;;;;;;4.03;1.63;;;20.10;66.90;;;;;;5052044;28;20060;-69
2022/06/12 06:13:37;;;;;;;2.45;1.50;;;20.20;67.00;;;;;;5052011;28;20021;-69
2022/06/12 06:16:03;;;;;;;2.40;1.83;;;20.20;67.00;;;;;;5034325;28;20025;-69
2022/06/12 06:18:29;;;;;;;3.58;1.60;;;20.20;67.00;;;;;;5050832;28;20024;-69
2022/06/12 06:20:55;;;;;;;5.75;1.60;;;20.20;67.00;;;;;;5051041;28;20112;-69
2022/06/12 06:23:20;;;;;;;4.80;1.98;;;20.20;66.90;;;;;;5050873;28;20029;-69
2022/06/12 06:25:46;;;;;;;4.60;1.73;;;20.20;67.00;;;;;;5051965;28;20029;-69
2022/06/12 06:28:12;;;;;;;4.68;1.48;;;20.20;67.00;;;;;;5051683;28;20108;-69
2022/06/12 06:30:38;;;;;;;3.70;1.67;;;20.20;67.00;;;;;;5032987;28;20503;-69
2022/06/12 06:33:04;;;;;;;4.63;1.77;;;20.20;67.00;;;;;;5030849;28;20148;-69
2022/06/12 06:35:29;;;;;;;4.35;1.70;;;20.20;67.00;;;;;;5032055;28;20033;-69
2022/06/12 06:37:55;;;;;;;2.97;1.52;;;20.20;67.00;;;;;;5034346;28;20028;-69
2022/06/12 06:40:23;;;;;;;4.97;1.58;;;20.20;67.00;;;;;;5050455;28;20032;-69
2022/06/12 06:42:48;;;;;;;3.20;1.50;;;20.20;66.90;;;;;;5050470;28;20029;-69
2022/06/12 06:47:59;;;;;;;3.55;1.40;;;20.20;66.90;;;;;;5036938;28;20043;-69
2022/06/12 06:50:25;;;;;;;7.60;2.05;;;20.20;66.90;;;;;;5050519;28;20022;-69
2022/06/12 06:52:50;;;;;;;3.90;1.70;;;20.20;67.00;;;;;;5050518;28;20020;-69
2022/06/12 06:55:17;;;;;;;5.13;1.92;;;20.20;66.90;;;;;;5050415;28;20384;-69
2022/06/12 06:57:43;;;;;;;6.68;1.70;;;20.20;67.00;;;;;;5051462;28;20025;-69
2022/06/12 07:00:10;;;;;;;3.30;1.63;;;20.20;66.80;;;;;;5050519;28;20025;-69
2022/06/12 07:02:36;;;;;;;6.47;1.70;;;20.30;67.00;;;;;;5051713;28;20018;-69
2022/06/12 07:05:02;;;;;;;4.80;1.65;;;20.30;67.00;;;;;;5044371;28;20034;-69
2022/06/12 07:07:27;;;;;;;3.28;1.60;;;20.20;66.90;;;;;;5036521;28;20020;-69
2022/06/12 07:09:53;;;;;;;4.55;1.48;;;20.30;67.10;;;;;;5037657;28;20083;-69
2022/06/12 07:12:19;;;;;;;4.65;1.60;;;20.30;67.10;;;;;;5035505;28;20387;-69
2022/06/12 07:14:44;;;;;;;6.95;1.95;;;20.20;67.00;;;;;;5034660;28;20029;-69
2022/06/12 07:17:11;;;;;;;3.40;1.52;;;20.30;67.20;;;;;;5034355;28;20024;-69
2022/06/12 07:19:36;;;;;;;8.40;1.80;;;20.30;67.20;;;;;;5033769;28;20031;-69
2022/06/12 07:22:02;;;;;;;3.92;1.95;;;20.30;67.20;;;;;;5035242;28;20067;-69
2022/06/12 07:24:28;;;;;;;3.08;1.40;;;20.30;67.20;;;;;;5035142;28;20045;-69
2022/06/12 07:26:53;;;;;;;4.47;1.50;;;20.30;67.20;;;;;;5034869;28;20057;-69
2022/06/12 07:29:21;;;;;;;2.88;1.52;;;20.30;67.20;;;;;;5034731;28;20492;-69
2022/06/12 07:31:46;;;;;;;3.58;1.60;;;20.30;67.30;;;;;;5033628;28;20021;-69
2022/06/12 07:34:13;;;;;;;4.30;1.70;;;20.30;67.30;;;;;;5033588;28;20022;-69
2022/06/12 07:36:41;;;;;;;3.90;1.75;;;20.30;67.30;;;;;;5043166;28;20036;-70
2022/06/12 07:39:07;;;;;;;5.07;1.88;;;20.30;67.30;;;;;;5037021;28;20036;-69
2022/06/12 07:41:33;;;;;;;3.72;1.50;;;20.30;67.40;;;;;;5053250;28;20025;-69
2022/06/12 07:43:59;;;;;;;4.65;1.65;;;20.30;67.40;;;;;;5053249;28;20087;-69
2022/06/12 07:46:24;;;;;;;2.88;1.52;;;20.30;67.40;;;;;;5052918;28;20399;-69
2022/06/12 07:48:50;;;;;;;2.35;1.33;;;20.40;67.50;;;;;;5054499;28;20463;-69
2022/06/12 07:51:17;;;;;;;3.85;1.77;;;20.30;67.40;;;;;;5053238;28;20025;-69
2022/06/12 07:53:43;;;;;;;3.28;1.60;;;20.40;67.50;;;;;;5054468;28;20498;-69
2022/06/12 07:56:09;;;;;;;3.80;1.70;;;20.30;67.40;;;;;;5036264;28;20029;-69
2022/06/12 07:58:36;;;;;;;4.07;1.70;;;20.40;67.50;;;;;;5036598;28;20064;-69
2022/06/12 08:01:03;;;;;;;4.32;1.67;;;20.40;67.50;;;;;;5054267;28;20036;-69
2022/06/12 08:03:29;;;;;;;7.07;1.83;;;20.40;67.50;;;;;;5036429;28;20553;-69
2022/06/12 08:05:54;;;;;;;5.25;1.70;;;20.40;67.50;;;;;;5053044;28;20033;-69
2022/06/12 08:08:20;;;;;;;3.00;1.63;;;20.40;67.50;;;;;;5052732;28;20029;-69
2022/06/12 08:10:46;;;;;;;4.30;1.45;;;20.40;67.50;;;;;;5052794;28;20018;-69
2022/06/12 08:13:11;;;;;;;4.18;1.70;;;20.40;67.50;;;;;;5053864;28;20037;-69
2022/06/12 08:15:38;;;;;;;5.55;2.33;;;20.40;67.40;;;;;;5052749;28;20438;-69
2022/06/12 08:18:04;;;;;;;5.57;1.88;;;20.40;67.50;;;;;;5054110;28;20112;-69
2022/06/12 08:20:30;;;;;;;3.95;1.60;;;20.40;68.50;;;;;;5053752;28;20140;-69
2022/06/12 08:23:26;;;;;;;8.25;2.15;;;20.40;67.50;;;;;;5036205;28;20036;-70
2022/06/12 08:25:55;;;;;;;8.00;2.58;;;20.40;64.80;;;;;;5052418;28;20456;-67
2022/06/12 08:28:22;;;;;;;9.55;2.30;;;20.30;64.10;;;;;;5036337;28;20025;-73
2022/06/12 08:30:48;;;;;;;5.60;2.13;;;20.20;63.20;;;;;;5033060;28;20096;-73
2022/06/12 08:33:13;;;;;;;6.80;2.00;;;20.10;62.70;;;;;;5033673;28;20060;-69
2022/06/12 08:35:39;;;;;;;8.75;2.20;;;20.10;62.30;;;;;;5033885;28;20128;-71
2022/06/12 08:38:05;;;;;;;6.40;2.33;;;20.10;62.20;;;;;;5052395;28;20529;-70
2022/06/12 08:40:38;;;;;;;5.65;2.20;;;20.10;61.60;;;;;;5053191;28;20078;-71
2022/06/12 08:43:14;;;;;;;8.05;2.08;;;20.10;61.20;;;;;;5036005;28;20483;-69
2022/06/12 08:45:45;;;;;;;8.82;2.47;;;20.10;60.80;;;;;;5052986;28;20052;-68
2022/06/12 08:48:17;;;;;;;10.13;2.05;;;20.10;61.20;;;;;;5052118;28;20018;-68
2022/06/12 08:51:01;;;;;;;14.43;2.97;;;20.10;61.70;;;;;;5052254;28;20472;-70
2022/06/12 08:53:32;;;;;;;12.98;2.25;;;20.10;61.30;;;;;;5036683;28;20025;-70
2022/06/12 08:56:03;;;;;;;10.13;1.95;;;20.10;61.50;;;;;;5052198;28;20064;-69
2022/06/12 08:59:07;;;;;;;9.00;2.58;;;20.10;61.10;;;;;;5035641;28;20495;-68
2022/06/12 09:01:35;;;;;;;7.32;1.98;;;20.10;61.50;;;;;;5052028;28;20397;-68
2022/06/12 09:04:01;;;;;;;10.07;2.38;;;20.20;61.40;;;;;;5035545;28;20025;-73
2022/06/12 09:06:47;;;;;;;11.35;2.35;;;20.20;61.70;;;;;;5051534;28;20037;-72
2022/06/12 09:09:23;;;;;;;6.60;1.98;;;20.20;60.70;;;;;;5051560;28;20108;-73
2022/06/12 09:12:13;;;;;;;5.97;2.00;;;20.20;60.70;;;;;;5045421;28;20029;-73
2022/06/12 09:14:42;;;;;;;11.75;2.50;;;20.10;59.70;;;;;;5049320;28;20044;-73
2022/06/12 09:17:14;;;;;;;7.70;2.05;;;20.00;58.90;;;;;;5051295;28;20028;-73
2022/06/12 09:19:41;;;;;;;;;;;20.00;59.30;;;;;;5052996;28;20108;-73
2022/06/12 09:22:16;;;;;;;7.05;2.30;;;20.10;62.20;;;;;;5051305;28;19905;-73
2022/06/12 09:25:12;;;;;;;10.43;2.42;;;20.20;62.00;;;;;;5043203;28;20033;-73
2022/06/12 09:27:51;;;;;;;9.50;2.35;;;20.10;60.20;;;;;;5030362;28;20103;-73
2022/06/12 09:30:25;;;;;;;6.05;2.03;;;20.10;60.20;;;;;;5046672;28;20032;-72
2022/06/12 09:33:07;;;;;;;10.07;2.28;;;20.10;60.00;;;;;;5033935;28;20029;-73
2022/06/12 09:36:08;;;;;;;10.85;2.60;;;20.10;59.70;;;;;;5031490;28;20017;-73
2022/06/12 09:38:59;;;;;;;8.60;2.25;;;20.10;59.80;;;;;;5034982;28;20032;-72
2022/06/12 09:41:27;;;;;;;8.32;2.50;;;20.10;59.70;;;;;;5050110;28;20037;-73
2022/06/12 09:44:13;;;;;;;5.22;1.83;;;20.00;59.00;;;;;;5035353;28;20024;-73
2022/06/12 09:46:43;;;;;;;9.07;2.42;;;20.10;59.20;;;;;;5049838;28;20455;-73
2022/06/12 09:49:28;;;;;;;8.25;2.20;;;20.10;59.20;;;;;;5050549;28;20021;-72
2022/06/12 09:52:12;;;;;;;12.95;2.92;;;20.10;59.00;;;;;;5052030;28;20029;-73
2022/06/12 09:54:47;;;;;;;18.10;3.58;;;20.10;59.30;;;;;;5050849;28;20108;-73
2022/06/12 09:57:18;;;;;;;29.15;5.20;;;20.10;60.00;;;;;;5051560;28;20025;-73
2022/06/12 10:00:07;;;;;;;30.00;3.95;;;20.20;63.10;;;;;;5050971;28;20028;-73
2022/06/12 10:02:50;;;;;;;18.17;3.70;;;20.30;61.10;;;;;;5036106;28;20036;-73
2022/06/12 10:05:27;;;;;;;19.50;3.30;;;20.20;59.80;;;;;;5051856;28;20480;-73
2022/06/12 10:08:00;;;;;;;19.65;2.88;;;20.20;59.80;;;;;;5035391;28;20119;-73
2022/06/12 10:11:15;;;;;;;17.40;3.47;;;20.20;60.10;;;;;;5034993;28;20017;-73
2022/06/12 10:13:45;;;;;;;17.02;3.55;;;20.20;60.00;;;;;;5050656;28;20503;-73
2022/06/12 10:16:23;;;;;;;14.73;2.70;;;20.20;59.40;;;;;;5051022;28;20029;-73
2022/06/12 10:19:00;;;;;;;13.63;2.33;;;20.20;60.10;;;;;;5034358;28;20020;-73
2022/06/12 10:21:25;;;;;;;13.55;2.60;;;20.20;60.30;;;;;;5050673;28;20021;-73
2022/06/12 10:23:51;;;;;;;12.82;2.13;;;20.20;59.60;;;;;;5034065;28;20112;-73
2022/06/12 10:26:22;;;;;;;11.75;2.72;;;20.20;58.90;;;;;;5050863;28;20029;-73
2022/06/12 10:28:47;;;;;;;9.50;2.30;;;20.20;58.00;;;;;;5049342;28;20025;-73
2022/06/12 10:31:20;;;;;;;14.45;2.75;;;20.20;57.60;;;;;;5030547;28;20555;-73
2022/06/12 10:33:47;;;;;;;;;;;20.20;58.00;;;;;;5031174;28;20033;-73
2022/06/12 10:36:28;;;;;;;8.23;2.28;;;20.20;58.30;;;;;;5037795;28;19957;-73
2022/06/12 10:39:17;;;;;;;10.27;2.22;;;20.20;58.30;;;;;;5051535;28;20098;-73
2022/06/12 10:41:55;;;;;;;9.95;2.47;;;20.20;58.30;;;;;;5051868;28;20021;-73
2022/06/12 10:44:44;;;;;;;8.43;2.33;;;20.20;58.40;;;;;;5036364;28;20076;-73
2022/06/12 10:47:15;;;;;;;9.20;1.88;;;20.20;57.70;;;;;;5054373;28;20033;-73
2022/06/12 10:49:41;;;;;;;5.65;2.28;;;20.20;57.70;;;;;;5055275;28;20048;-73
2022/06/12 10:52:21;;;;;;;11.50;2.45;;;20.20;57.80;;;;;;5054336;28;20511;-73
2022/06/12 10:54:47;;;;;;;7.60;2.70;;;20.20;57.90;;;;;;5054359;28;20483;-73
2022/06/12 10:57:38;;;;;;;8.15;2.00;;;20.20;57.30;;;;;;5054171;28;20116;-73
2022/06/12 11:00:16;;;;;;;9.20;2.28;;;20.20;57.10;;;;;;5054251;28;20032;-73
2022/06/12 11:03:19;;;;;;;7.63;1.85;;;20.20;57.30;;;;;;5053961;28;20507;-74
2022/06/12 11:06:06;;;;;;;6.22;2.28;;;20.20;57.40;;;;;;5055091;28;20554;-73
2022/06/12 11:08:41;;;;;;;7.60;2.55;;;20.20;56.90;;;;;;5054970;28;20024;-73
2022/06/12 11:11:25;;;;;;;7.63;2.30;;;20.20;56.70;;;;;;5054043;28;20028;-73
2022/06/12 11:14:03;;;;;;;7.10;2.00;;;20.10;56.40;;;;;;5054894;28;20552;-72
2022/06/12 11:17:06;;;;;;;5.22;1.95;;;20.10;56.30;;;;;;5038308;28;20029;-73
2022/06/12 11:20:10;;;;;;;9.43;2.00;;;20.00;56.30;;;;;;5054540;28;20025;-73
2022/06/12 11:22:36;;;;;;;5.93;1.83;;;20.10;56.10;;;;;;5054747;28;20037;-73
2022/06/12 11:25:35;;;;;;;7.95;1.73;;;20.00;56.00;;;;;;5054704;28;20078;-73
2022/06/12 11:28:25;;;;;;;8.00;2.10;;;20.10;56.60;;;;;;5040104;28;20021;-73
2022/06/12 11:31:33;;;;;;;7.43;2.35;;;20.10;56.80;;;;;;5019422;28;20029;-73
2022/06/12 11:34:11;;;;;;;6.07;1.80;;;20.10;56.80;;;;;;5033482;28;20025;-74
2022/06/12 11:36:53;;;;;;;8.52;2.00;;;20.10;57.10;;;;;;5042956;28;20218;-73
2022/06/12 11:39:37;;;;;;;6.83;1.70;;;20.10;56.90;;;;;;5054539;28;20131;-73
2022/06/12 11:42:17;;;;;;;7.65;2.45;;;20.10;56.90;;;;;;5054722;28;20344;-73
2022/06/12 11:45:01;;;;;;;11.27;2.40;;;20.10;56.90;;;;;;5036757;28;20041;-73
2022/06/12 11:47:45;;;;;;;8.77;2.72;;;20.10;56.80;;;;;;5054060;28;20480;-73
2022/06/12 11:50:34;;;;;;;9.45;2.17;;;20.20;56.70;;;;;;5054447;28;20437;-73
2022/06/12 11:53:10;;;;;;;10.55;2.47;;;20.10;56.40;;;;;;5054250;28;20028;-73
2022/06/12 11:56:22;;;;;;;10.45;2.20;;;20.20;56.70;;;;;;5053769;28;20021;-73
2022/06/12 11:58:52;;;;;;;9.10;2.53;;;20.20;56.90;;;;;;5059241;28;20056;-74
2022/06/12 12:01:39;;;;;;;6.38;2.00;;;20.20;56.80;;;;;;5055291;28;20024;-72
2022/06/12 12:04:37;;;;;;;7.15;1.83;;;20.20;56.50;;;;;;5071813;28;20036;-73
2022/06/12 12:07:09;;;;;;;6.28;1.67;;;20.20;56.40;;;;;;5039193;28;20044;-73
2022/06/12 12:09:40;;;;;;;6.35;1.95;;;20.10;56.00;;;;;;5055687;28;20123;-73
2022/06/12 12:12:12;;;;;;;9.93;2.45;;;20.10;56.20;;;;;;5055412;28;20060;-74
2022/06/12 12:14:38;;;;;;;5.18;1.73;;;20.10;56.20;;;;;;5038575;28;20024;-73
2022/06/12 12:17:12;;;;;;;6.68;2.08;;;20.10;56.00;;;;;;5054777;28;20013;-73
2022/06/12 12:19:47;;;;;;;8.95;2.20;;;20.10;56.40;;;;;;5055683;28;20024;-72
2022/06/12 12:22:18;;;;;;;9.35;2.00;;;20.10;56.20;;;;;;5038951;28;20028;-74
2022/06/12 12:24:49;;;;;;;6.65;1.88;;;20.20;56.00;;;;;;5038677;28;20062;-73
2022/06/12 12:27:28;;;;;;;8.55;1.88;;;20.20;55.60;;;;;;5038820;28;20066;-73
2022/06/12 12:29:54;;;;;;;8.35;2.10;;;20.20;55.60;;;;;;5034634;28;20511;-73
2022/06/12 12:32:20;;;;;;;5.13;1.85;;;20.20;55.60;;;;;;5034616;28;20516;-73
2022/06/12 12:34:45;;;;;;;4.95;1.50;;;20.20;55.60;;;;;;5028871;28;20034;-73
2022/06/12 12:42:42;;;;;;;8.48;1.80;;;20.20;55.20;;;;;;5052230;28;20032;-73
2022/06/12 12:45:31;;;;;;;10.68;2.13;;;20.20;55.30;;;;;;5051806;28;20061;-73
2022/06/12 12:47:59;;;;;;;8.45;1.80;;;20.20;55.70;;;;;;5053152;28;20040;-73
2022/06/12 12:50:26;;;;;;;7.05;1.70;;;20.20;55.60;;;;;;5035994;28;20017;-73
2022/06/12 12:52:55;;;;;;;6.63;1.70;;;20.20;55.60;;;;;;5052009;28;20140;-74
2022/06/12 12:55:25;;;;;;;7.28;2.10;;;20.20;55.90;;;;;;5052034;28;20017;-73
2022/06/12 12:57:51;;;;;;;7.38;1.90;;;20.30;56.20;;;;;;5051907;28;20025;-73
2022/06/12 13:00:16;;;;;;;7.85;1.98;;;20.30;56.20;;;;;;5035185;28;20044;-72
2022/06/12 13:03:03;;;;;;;6.88;1.60;;;20.30;55.70;;;;;;5053022;28;20021;-73
2022/06/12 13:05:48;;;;;;;6.60;1.58;;;20.30;55.40;;;;;;5051886;28;20017;-72
2022/06/12 13:08:16;;;;;;;4.93;1.65;;;20.30;55.30;;;;;;5051049;28;20105;-73
2022/06/12 13:10:48;;;;;;;5.72;1.80;;;20.30;54.80;;;;;;5051792;28;20087;-73
2022/06/12 13:13:32;;;;;;;3.60;1.43;;;20.40;54.90;;;;;;5052958;28;20029;-73
2022/06/12 13:16:23;;;;;;;4.95;1.33;;;20.40;54.90;;;;;;5052623;28;20354;-73
2022/06/12 13:19:15;;;;;;;7.40;1.80;;;20.40;55.10;;;;;;5051524;28;20499;-73
2022/06/12 13:21:56;;;;;;;7.20;1.80;;;20.50;55.20;;;;;;5051513;28;20035;-73
2022/06/12 13:24:26;;;;;;;6.32;1.60;;;20.50;55.70;;;;;;5052692;28;20074;-73
2022/06/12 13:26:52;;;;;;;5.18;1.80;;;20.50;55.00;;;;;;5052393;28;20037;-73
2022/06/12 13:29:19;;;;;;;5.65;1.50;;;20.50;54.80;;;;;;5044570;28;20032;-73
2022/06/12 13:32:00;;;;;;;9.02;1.73;;;20.50;54.60;;;;;;5031319;28;20021;-73
2022/06/12 13:34:26;;;;;;;6.03;1.58;;;20.50;54.50;;;;;;5031774;28;20022;-72
2022/06/12 13:36:52;;;;;;;7.15;1.83;;;20.50;54.20;;;;;;5043689;28;20025;-73